This is the latest recevied weather packets stored in our database for station/object DK9HI-WX. If no packets are shown the sender has not sent any weather packets the latest 10 day(s).
| Time | Temp. | Humidity | Pressure | Rain* | Wind** | Luminosity | Snow |
|---|---|---|---|---|---|---|---|
| 1777718585 | 24.44° C | 33% | 1019.8 hPa | - | - | - | - |
| 1777717985 | 23.89° C | 34% | 1019.9 hPa | - | - | - | - |
| 1777717385 | 23.89° C | 34% | 1020.2 hPa | - | - | - | - |
| 1777716785 | 23.33° C | 35% | 1020.3 hPa | - | - | - | - |
| 1777716184 | 22.78° C | 36% | 1020.5 hPa | - | - | - | - |
| 1777715584 | 22.78° C | 37% | 1020.7 hPa | - | - | - | - |
| 1777714984 | 22.22° C | 38% | 1020.8 hPa | - | - | - | - |
| 1777714384 | 21.67° C | 39% | 1020.9 hPa | - | - | - | - |
| 1777713784 | 21.67° C | 39% | 1021 hPa | - | - | - | - |
| 1777713185 | 21.11° C | 39% | 1021 hPa | - | - | - | - |
| 1777712584 | 21.11° C | 39% | 1021.1 hPa | - | - | - | - |
| 1777711984 | 20.56° C | 40% | 1021 hPa | - | - | - | - |
| 1777711384 | 20.56° C | 40% | 1021.2 hPa | - | - | - | - |
| 1777710784 | 20.56° C | 40% | 1021.2 hPa | - | - | - | - |
| 1777710184 | 19.44° C | 46% | 1021.2 hPa | - | - | - | - |
| 1777709584 | 18.33° C | 49% | 1021.2 hPa | - | - | - | - |
| 1777708984 | 18.33° C | 48% | 1021.3 hPa | - | - | - | - |
| 1777708384 | 18.33° C | 49% | 1021.4 hPa | - | - | - | - |
| 1777707784 | 17.78° C | 52% | 1021.5 hPa | - | - | - | - |
| 1777707184 | 17.22° C | 54% | 1021.5 hPa | - | - | - | - |
| 1777706584 | 17.22° C | 53% | 1021.6 hPa | - | - | - | - |
| 1777705984 | 16.11° C | 58% | 1021.8 hPa | - | - | - | - |
| 1777705384 | 15.56° C | 66% | 1021.8 hPa | - | - | - | - |
| 1777704784 | 15° C | 66% | 1021.9 hPa | - | - | - | - |
| 1777704184 | 14.44° C | 71% | 1022 hPa | - | - | - | - |
* Rain since midnight (hover to see other rain measurements)
** Current wind speed in m/s (hover to see current wind gust speed)